Time;durP1;ratioP1;P1;durP2;ratioP2;P2;SDS_P1;SDS_P2;PMS_P1;PMS_P2;Temp;Humidity;BMP_temperature;BMP_pressure;BME280_temperature;BME280_humidity;BME280_pressure;Samples;Min_cycle;Max_cycle;Signal;HPM_P1;HPM_P2
2023/10/11 00:01:58;;;;;;;14.70;7.20;;;16.90;99.90;;;;;;5095679;28;20658;-88
2023/10/11 00:04:23;;;;;;;14.13;7.75;;;16.90;99.90;;;;;;5096754;28;20040;-89
2023/10/11 00:06:50;;;;;;;16.20;8.52;;;16.90;99.90;;;;;;5080015;28;20028;-89
2023/10/11 00:09:16;;;;;;;16.17;8.20;;;16.90;99.90;;;;;;5078554;28;20134;-89
2023/10/11 00:11:42;;;;;;;16.17;8.68;;;16.90;99.90;;;;;;5078778;28;20130;-88
2023/10/11 00:14:08;;;;;;;17.23;8.50;;;16.90;99.90;;;;;;5110405;28;20023;-89
2023/10/11 00:16:35;;;;;;;15.73;9.00;;;16.90;99.90;;;;;;5087916;28;20581;-88
2023/10/11 00:19:01;;;;;;;17.20;9.43;;;16.80;99.90;;;;;;5083975;28;20067;-89
2023/10/11 00:21:42;;;;;;;14.25;8.70;;;16.80;99.90;;;;;;5077452;28;20379;-89
2023/10/11 00:24:08;;;;;;;14.70;8.75;;;16.80;99.90;;;;;;5078866;28;20038;-89
2023/10/11 00:26:40;;;;;;;8.98;4.22;;;16.80;99.90;;;;;;5097636;28;20039;-89
2023/10/11 00:29:05;;;;;;;15.73;8.95;;;16.70;99.90;;;;;;5093578;28;20131;-89
2023/10/11 00:31:35;;;;;;;13.45;8.90;;;16.70;99.90;;;;;;5076564;28;20130;-89
2023/10/11 00:34:03;;;;;;;13.80;9.27;;;16.70;99.90;;;;;;5095949;28;20067;-89
2023/10/11 00:36:30;;;;;;;14.73;9.45;;;16.70;99.90;;;;;;5094293;28;20538;-89
2023/10/11 00:38:56;;;;;;;17.70;9.70;;;16.70;99.90;;;;;;5078603;28;20078;-88
2023/10/11 00:41:25;;;;;;;16.02;9.55;;;16.70;99.90;;;;;;5077782;28;20044;-89
2023/10/11 00:43:53;;;;;;;14.85;9.30;;;16.70;99.90;;;;;;5079098;28;20036;-88
2023/10/11 00:46:23;;;;;;;19.25;10.27;;;16.70;99.90;;;;;;5095432;28;20111;-89
2023/10/11 00:48:54;;;;;;;16.95;6.90;;;16.70;99.90;;;;;;5095588;28;20071;-89
2023/10/11 00:51:29;;;;;;;12.15;5.68;;;16.60;99.90;;;;;;5076389;28;20093;-89
2023/10/11 00:53:56;;;;;;;16.40;9.27;;;16.60;99.90;;;;;;5090652;28;20051;-89
2023/10/11 00:56:22;;;;;;;16.48;10.23;;;16.60;99.90;;;;;;5079473;28;20046;-89
2023/10/11 00:58:52;;;;;;;15.13;9.23;;;16.60;99.90;;;;;;5076310;28;20059;-88
2023/10/11 01:01:17;;;;;;;15.00;9.35;;;16.60;99.90;;;;;;5077768;28;20456;-88
2023/10/11 01:03:44;;;;;;;11.85;4.35;;;16.70;99.90;;;;;;5075322;28;20040;-89
2023/10/11 01:06:12;;;;;;;15.52;9.48;;;16.60;99.90;;;;;;5077578;28;20084;-88
2023/10/11 01:08:38;;;;;;;15.93;9.50;;;16.60;99.90;;;;;;5076759;28;20039;-89
2023/10/11 01:11:08;;;;;;;16.52;10.45;;;16.60;99.90;;;;;;5094692;28;20039;-89
2023/10/11 01:13:33;;;;;;;13.93;9.60;;;16.60;99.90;;;;;;5075914;28;20133;-89
2023/10/11 01:15:59;;;;;;;17.48;6.53;;;16.60;99.90;;;;;;5094417;28;20063;-88
2023/10/11 01:18:27;;;;;;;15.05;9.77;;;16.60;99.90;;;;;;5094390;28;20043;-88
2023/10/11 01:20:52;;;;;;;15.82;9.70;;;16.50;99.90;;;;;;5077032;28;20084;-88
2023/10/11 01:23:18;;;;;;;13.80;6.18;;;16.60;99.90;;;;;;5077013;28;20044;-89
2023/10/11 01:25:43;;;;;;;9.05;4.88;;;16.50;99.90;;;;;;5076537;28;20036;-89
2023/10/11 01:28:09;;;;;;;15.45;9.98;;;16.50;99.90;;;;;;5094231;28;20154;-89
2023/10/11 01:30:35;;;;;;;16.30;10.75;;;16.50;99.90;;;;;;5095257;28;20046;-88
2023/10/11 01:33:00;;;;;;;16.02;11.15;;;16.60;99.90;;;;;;5075593;28;20047;-89
2023/10/11 01:35:35;;;;;;;19.80;10.90;;;16.50;99.90;;;;;;5076013;28;20045;-89
2023/10/11 01:38:04;;;;;;;13.95;5.88;;;16.60;99.90;;;;;;5093592;28;20031;-88
2023/10/11 01:40:32;;;;;;;16.13;10.32;;;16.50;99.90;;;;;;5077002;28;20042;-89
2023/10/11 01:42:59;;;;;;;15.85;10.93;;;16.50;99.90;;;;;;5076972;28;20040;-89
2023/10/11 01:45:24;;;;;;;17.67;11.18;;;16.60;99.90;;;;;;5092233;28;20384;-89
2023/10/11 01:47:56;;;;;;;18.20;11.30;;;16.50;99.90;;;;;;5092993;28;20088;-89
2023/10/11 01:50:22;;;;;;;19.13;11.37;;;16.60;99.90;;;;;;5070495;28;20112;-89
2023/10/11 01:52:48;;;;;;;12.50;6.75;;;16.50;99.90;;;;;;5091648;28;20038;-89
2023/10/11 01:55:14;;;;;;;12.43;6.63;;;16.50;99.90;;;;;;5074960;28;20036;-88
2023/10/11 01:57:48;;;;;;;15.02;10.40;;;16.50;99.90;;;;;;5092009;28;20035;-89
2023/10/11 02:00:24;;;;;;;11.52;6.35;;;16.50;99.90;;;;;;5091500;28;20036;-88
2023/10/11 02:02:55;;;;;;;16.27;11.15;;;16.40;99.90;;;;;;5091631;28;20055;-88
2023/10/11 02:05:22;;;;;;;17.45;11.23;;;16.40;99.90;;;;;;5078379;28;20027;-88
2023/10/11 02:07:48;;;;;;;17.30;6.30;;;16.50;99.90;;;;;;5074977;28;20447;-88
2023/10/11 02:10:14;;;;;;;12.88;6.53;;;16.40;99.90;;;;;;5091935;28;20135;-88
2023/10/11 02:12:46;;;;;;;16.67;11.32;;;16.30;99.90;;;;;;5088767;28;20047;-89
2023/10/11 02:15:21;;;;;;;17.92;11.98;;;16.30;99.90;;;;;;5085653;28;20054;-88
2023/10/11 02:17:48;;;;;;;18.70;12.35;;;16.40;99.90;;;;;;5092115;28;20066;-89
2023/10/11 02:20:20;;;;;;;17.33;11.55;;;16.30;99.90;;;;;;5090441;28;20059;-89
2023/10/11 02:22:52;;;;;;;19.52;11.88;;;16.30;99.90;;;;;;5075598;28;20112;-88
2023/10/11 02:25:19;;;;;;;16.17;6.47;;;16.30;99.90;;;;;;5094134;28;20039;-88
2023/10/11 02:27:49;;;;;;;18.10;11.18;;;16.20;99.90;;;;;;5073973;28;20039;-88
2023/10/11 02:30:20;;;;;;;17.50;11.68;;;16.30;99.90;;;;;;5093677;28;20036;-88
2023/10/11 02:32:47;;;;;;;15.63;6.73;;;16.30;99.90;;;;;;5074536;28;20097;-88
2023/10/11 02:35:13;;;;;;;13.75;6.40;;;16.30;99.90;;;;;;5111844;28;20042;-88
2023/10/11 02:37:45;;;;;;;18.40;11.45;;;16.20;99.90;;;;;;5093277;28;20500;-88
2023/10/11 02:40:16;;;;;;;9.88;4.80;;;16.30;99.90;;;;;;5075607;28;20035;-88
2023/10/11 02:43:05;;;;;;;18.63;11.30;;;16.20;99.90;;;;;;5076939;28;20055;-88
2023/10/11 02:45:33;;;;;;;17.48;11.48;;;16.20;99.90;;;;;;5093523;28;20084;-88
2023/10/11 02:47:59;;;;;;;13.43;4.78;;;16.30;99.90;;;;;;5084840;28;20069;-88
2023/10/11 02:50:36;;;;;;;21.23;12.02;;;16.20;99.90;;;;;;5094566;28;20080;-88
2023/10/11 02:53:20;;;;;;;18.58;11.48;;;16.20;99.90;;;;;;5074189;28;20043;-88
2023/10/11 02:55:47;;;;;;;15.93;6.97;;;16.20;99.90;;;;;;5071387;28;20601;-88
2023/10/11 02:58:21;;;;;;;19.73;12.43;;;16.20;99.90;;;;;;5076239;28;20038;-88
2023/10/11 03:00:47;;;;;;;20.38;12.10;;;16.20;99.90;;;;;;5090316;28;20036;-89
2023/10/11 03:03:15;;;;;;;14.60;6.68;;;16.20;99.90;;;;;;5092990;28;20039;-89
2023/10/11 03:05:41;;;;;;;19.60;11.73;;;16.10;99.90;;;;;;5094389;28;20054;-88
2023/10/11 03:08:21;;;;;;;18.42;11.52;;;16.20;99.90;;;;;;5093807;28;20047;-88
2023/10/11 03:10:54;;;;;;;16.65;11.45;;;16.20;99.90;;;;;;5086693;28;20089;-88
2023/10/11 03:13:32;;;;;;;19.13;11.27;;;16.20;99.90;;;;;;5092083;28;20145;-88
2023/10/11 03:15:59;;;;;;;14.80;6.15;;;16.20;99.90;;;;;;5094339;28;20039;-88
2023/10/11 03:18:31;;;;;;;16.33;11.52;;;16.10;99.90;;;;;;5093837;28;20114;-89
2023/10/11 03:21:07;;;;;;;12.23;6.45;;;16.10;99.90;;;;;;5072250;28;20032;-88
2023/10/11 03:23:43;;;;;;;14.27;6.03;;;16.10;99.90;;;;;;5092997;28;20119;-89
2023/10/11 03:26:16;;;;;;;17.38;11.52;;;16.00;99.90;;;;;;5073939;28;20105;-88
2023/10/11 03:28:43;;;;;;;19.58;11.93;;;16.10;99.90;;;;;;5081844;28;20032;-88
2023/10/11 03:31:12;;;;;;;17.10;6.72;;;16.10;99.90;;;;;;5061580;28;20039;-88
2023/10/11 03:33:40;;;;;;;18.92;11.70;;;16.00;99.90;;;;;;5085846;28;20040;-88
2023/10/11 03:36:17;;;;;;;18.85;12.05;;;16.00;99.90;;;;;;5074765;28;20059;-89
2023/10/11 03:38:51;;;;;;;19.00;11.65;;;16.00;99.90;;;;;;5088674;28;20028;-88
2023/10/11 03:41:17;;;;;;;19.60;10.90;;;15.90;99.90;;;;;;5083279;28;20028;-88
2023/10/11 03:43:44;;;;;;;19.02;12.02;;;15.90;99.90;;;;;;5078494;28;20039;-88
2023/10/11 03:46:10;;;;;;;12.68;5.43;;;15.90;99.90;;;;;;5059092;28;20043;-89
2023/10/11 03:48:44;;;;;;;16.92;11.25;;;15.90;99.90;;;;;;5091026;28;20039;-88
2023/10/11 03:51:13;;;;;;;13.73;7.07;;;15.90;99.90;;;;;;5072446;28;20039;-89
2023/10/11 03:53:39;;;;;;;14.20;7.18;;;15.80;99.90;;;;;;5085234;28;20074;-89
2023/10/11 03:56:06;;;;;;;20.15;11.38;;;15.80;99.90;;;;;;5086824;28;20036;-88
2023/10/11 04:03:40;;;;;;;17.02;11.20;;;15.80;99.90;;;;;;5092413;28;20062;-88
2023/10/11 04:06:13;;;;;;;18.98;11.18;;;15.80;99.90;;;;;;5078437;28;20047;-89
2023/10/11 04:08:43;;;;;;;15.38;6.05;;;15.80;99.90;;;;;;5078652;28;20039;-88
2023/10/11 04:11:19;;;;;;;16.65;6.30;;;15.70;99.90;;;;;;5077676;28;20042;-88
2023/10/11 04:13:49;;;;;;;21.85;12.18;;;15.70;99.90;;;;;;5078118;28;20406;-89
2023/10/11 04:16:18;;;;;;;14.32;5.15;;;15.70;99.90;;;;;;5078547;28;20505;-89
2023/10/11 04:18:44;;;;;;;19.33;11.20;;;15.70;99.90;;;;;;5096257;28;20057;-88
2023/10/11 04:23:35;;;;;;;16.92;7.93;;;15.70;99.90;;;;;;5101946;28;20047;-89
2023/10/11 04:26:09;;;;;;;18.08;11.43;;;15.60;99.90;;;;;;5080118;28;20028;-88
2023/10/11 04:28:41;;;;;;;19.77;11.95;;;15.70;99.90;;;;;;5079889;28;20043;-89
2023/10/11 04:33:51;;;;;;;16.05;6.05;;;15.80;99.90;;;;;;5094281;28;20043;-90
2023/10/11 04:36:20;;;;;;;19.48;11.63;;;15.70;99.90;;;;;;5080148;28;20028;-88
2023/10/11 04:38:50;;;;;;;17.30;10.88;;;15.70;99.90;;;;;;5095889;28;20036;-88
2023/10/11 04:41:18;;;;;;;17.52;10.90;;;15.70;99.90;;;;;;5079601;28;20075;-88
2023/10/11 04:44:04;;;;;;;14.52;5.53;;;15.80;99.90;;;;;;5080232;28;20069;-88
2023/10/11 04:46:31;;;;;;;19.13;11.82;;;15.70;99.90;;;;;;5096691;28;20040;-88
2023/10/11 04:49:17;;;;;;;17.10;11.40;;;15.70;99.90;;;;;;5079161;28;20047;-88
2023/10/11 04:51:45;;;;;;;19.35;11.82;;;15.70;99.90;;;;;;5098424;28;20040;-89
2023/10/11 04:54:13;;;;;;;13.27;6.15;;;15.70;99.90;;;;;;5083958;27;20028;-89
2023/10/11 04:59:36;;;;;;;19.20;11.80;;;15.60;99.90;;;;;;5104411;27;20043;-89
2023/10/11 05:02:09;;;;;;;21.08;12.07;;;15.70;99.90;;;;;;5087145;27;20077;-89
2023/10/11 05:04:41;;;;;;;;;;;15.70;99.90;;;;;;5082148;28;20083;-89
2023/10/11 05:07:07;;;;;;;11.20;5.35;;;15.70;99.90;;;;;;5079496;28;19957;-89
2023/10/11 05:09:38;;;;;;;18.77;12.25;;;15.60;99.90;;;;;;5096063;28;20082;-88
2023/10/11 05:12:12;;;;;;;15.25;5.93;;;15.60;99.90;;;;;;5095646;28;20050;-89
2023/10/11 05:14:40;;;;;;;15.07;5.43;;;15.60;99.90;;;;;;5095983;28;20040;-89
2023/10/11 05:17:30;;;;;;;20.20;12.38;;;15.60;99.90;;;;;;5078752;28;20058;-89
2023/10/11 05:20:20;;;;;;;17.80;11.90;;;15.70;99.90;;;;;;5087551;27;20099;-88
2023/10/11 05:25:16;;;;;;;18.45;12.40;;;15.70;99.90;;;;;;5109716;27;20113;-89
2023/10/11 05:27:57;;;;;;;18.85;12.18;;;15.70;99.90;;;;;;5100802;27;20043;-89
2023/10/11 05:32:58;;;;;;;16.52;5.85;;;15.80;99.90;;;;;;5105878;28;20502;-89
2023/10/11 05:52:07;;;;;;;15.57;8.18;;;15.70;99.90;;;;;;5092226;28;20051;-88
2023/10/11 05:54:36;;;;;;;21.70;14.23;;;15.60;99.90;;;;;;5076178;28;20071;-89
2023/10/11 05:57:05;;;;;;;24.75;15.00;;;15.60;99.90;;;;;;5077540;28;20034;-89
2023/10/11 05:59:32;;;;;;;19.70;15.48;;;15.70;99.90;;;;;;5081201;28;20384;-88
2023/10/11 06:01:59;;;;;;;17.13;7.97;;;15.70;99.90;;;;;;5096265;28;20513;-89
2023/10/11 06:04:25;;;;;;;23.77;15.20;;;15.70;99.90;;;;;;5100624;28;20073;-88
2023/10/11 06:06:57;;;;;;;16.17;7.95;;;15.60;99.90;;;;;;5094202;28;20039;-89
2023/10/11 06:09:27;;;;;;;23.40;14.82;;;15.60;99.90;;;;;;5077484;28;20105;-89
2023/10/11 06:11:54;;;;;;;15.63;7.30;;;15.70;99.90;;;;;;5077377;28;20043;-89
2023/10/11 06:14:21;;;;;;;28.75;16.25;;;15.60;99.90;;;;;;5095202;28;20441;-89
2023/10/11 06:16:57;;;;;;;19.20;8.18;;;15.60;99.90;;;;;;5094962;28;20081;-88
2023/10/11 06:19:27;;;;;;;21.23;8.55;;;15.60;99.90;;;;;;5077719;28;20031;-89
2023/10/11 06:21:57;;;;;;;24.05;16.15;;;15.50;99.90;;;;;;5102926;28;20067;-89
2023/10/11 06:24:30;;;;;;;18.15;7.10;;;15.60;99.90;;;;;;5078224;28;20047;-88
2023/10/11 06:27:11;;;;;;;24.10;16.67;;;15.60;99.90;;;;;;5094242;28;20045;-88
2023/10/11 06:29:53;;;;;;;17.42;8.68;;;15.60;99.90;;;;;;5094617;28;20043;-89
2023/10/11 06:32:19;;;;;;;24.88;17.45;;;15.60;99.90;;;;;;5094929;28;20039;-89
2023/10/11 06:34:47;;;;;;;20.08;9.40;;;15.70;99.90;;;;;;5094680;28;20039;-89
2023/10/11 06:37:17;;;;;;;22.90;16.13;;;15.70;99.90;;;;;;5085399;28;20032;-89
2023/10/11 06:42:13;;;;;;;22.15;8.52;;;15.80;99.90;;;;;;5093695;28;20053;-89
2023/10/11 06:44:43;;;;;;;21.52;8.15;;;15.80;99.90;;;;;;5081873;28;20096;-88
2023/10/11 06:47:11;;;;;;;21.23;16.63;;;15.80;99.90;;;;;;5094350;28;20058;-89
2023/10/11 06:49:40;;;;;;;23.85;16.00;;;15.80;99.90;;;;;;5085652;28;20082;-89
2023/10/11 06:52:07;;;;;;;14.27;8.32;;;15.90;99.90;;;;;;5094054;28;20044;-89
2023/10/11 06:54:33;;;;;;;17.13;10.13;;;15.90;99.90;;;;;;5094297;28;20080;-89
2023/10/11 06:57:01;;;;;;;23.67;17.17;;;15.80;99.90;;;;;;5094224;28;20036;-89
2023/10/11 06:59:28;;;;;;;18.27;7.63;;;15.90;99.90;;;;;;5076961;28;20515;-89
2023/10/11 07:01:53;;;;;;;23.60;16.85;;;15.90;99.90;;;;;;5076549;28;20036;-89
2023/10/11 07:04:19;;;;;;;26.35;17.10;;;15.90;99.90;;;;;;5076742;28;20515;-89
2023/10/11 07:06:49;;;;;;;24.85;10.52;;;16.00;99.90;;;;;;5093731;28;20067;-89
2023/10/11 07:09:22;;;;;;;17.40;9.25;;;16.00;99.90;;;;;;5076672;28;20118;-89
2023/10/11 07:11:59;;;;;;;16.55;7.97;;;16.00;99.90;;;;;;5077152;28;20092;-89
2023/10/11 07:14:40;;;;;;;25.17;18.73;;;15.90;99.90;;;;;;5093823;28;20036;-89
2023/10/11 07:17:08;;;;;;;24.50;17.73;;;16.00;99.90;;;;;;5076630;28;20510;-89
2023/10/11 07:19:36;;;;;;;23.10;9.45;;;16.10;99.90;;;;;;5076835;28;20071;-89
2023/10/11 07:22:03;;;;;;;19.05;9.95;;;16.10;99.90;;;;;;5077478;28;20402;-89
2023/10/11 07:27:26;;;;;;;19.65;9.20;;;16.10;99.90;;;;;;5093953;28;20048;-89
2023/10/11 07:29:54;;;;;;;26.55;10.13;;;16.10;99.90;;;;;;5085434;28;20051;-89
2023/10/11 07:32:21;;;;;;;26.58;18.73;;;16.10;99.90;;;;;;5076986;28;20173;-89
2023/10/11 07:34:54;;;;;;;19.58;11.15;;;16.20;99.90;;;;;;5076742;28;20071;-89
2023/10/11 07:37:26;;;;;;;28.35;19.88;;;16.10;99.90;;;;;;5076242;28;20141;-89
2023/10/11 07:39:59;;;;;;;27.88;19.48;;;16.20;99.90;;;;;;5079023;28;20113;-89
2023/10/11 07:42:27;;;;;;;20.33;8.93;;;16.30;99.90;;;;;;5110987;27;20040;-89
2023/10/11 07:44:52;;;;;;;23.63;10.77;;;16.30;99.90;;;;;;5083508;28;20055;-88
2023/10/11 07:47:21;;;;;;;32.83;20.52;;;16.20;99.90;;;;;;5098207;28;20502;-89
2023/10/11 07:49:49;;;;;;;29.27;20.33;;;16.30;99.90;;;;;;5080606;27;20043;-88
2023/10/11 07:52:19;;;;;;;26.08;21.45;;;16.40;99.90;;;;;;5089561;27;20074;-88
2023/10/11 07:54:45;;;;;;;19.23;10.10;;;16.40;99.90;;;;;;5096605;27;20497;-88
2023/10/11 07:57:13;;;;;;;30.92;22.35;;;16.40;99.90;;;;;;5099531;28;20054;-88
2023/10/11 07:59:39;;;;;;;29.17;22.75;;;16.50;99.90;;;;;;5082076;28;20547;-88
2023/10/11 08:02:16;;;;;;;32.20;12.02;;;16.50;99.90;;;;;;5098664;28;20499;-88
2023/10/11 08:04:47;;;;;;;23.92;12.52;;;16.50;99.90;;;;;;5103798;27;20098;-89
2023/10/11 08:07:16;;;;;;;32.60;24.42;;;16.40;99.90;;;;;;5107586;27;20221;-88
2023/10/11 08:09:45;;;;;;;35.83;24.70;;;16.50;99.90;;;;;;5106565;27;20043;-88
2023/10/11 08:12:19;;;;;;;20.02;11.80;;;16.50;99.90;;;;;;5106975;27;20471;-88
2023/10/11 08:14:45;;;;;;;35.88;24.83;;;16.50;99.90;;;;;;5088719;27;20033;-88
2023/10/11 08:17:21;;;;;;;36.83;25.00;;;16.60;99.90;;;;;;5090102;27;20028;-88
2023/10/11 08:19:53;;;;;;;17.58;8.85;;;16.60;99.90;;;;;;5089029;27;20039;-88
2023/10/11 08:22:22;;;;;;;36.63;25.33;;;16.60;99.90;;;;;;5103991;27;20525;-88
2023/10/11 08:24:52;;;;;;;35.88;24.98;;;16.60;99.90;;;;;;5081665;28;20035;-88
2023/10/11 08:29:56;;;;;;;37.28;26.90;;;16.70;99.90;;;;;;5096629;28;20040;-88
2023/10/11 08:32:25;;;;;;;35.85;26.67;;;16.70;99.90;;;;;;5079389;28;20083;-88
2023/10/11 08:34:51;;;;;;;40.88;26.77;;;16.70;99.90;;;;;;5081786;28;20027;-88
2023/10/11 08:37:17;;;;;;;24.38;11.82;;;16.70;99.90;;;;;;5079385;28;20027;-88
2023/10/11 08:39:44;;;;;;;21.38;10.82;;;16.70;99.90;;;;;;5097028;28;20032;-88
2023/10/11 08:42:16;;;;;;;32.28;26.00;;;16.70;99.90;;;;;;5096824;28;20079;-88
2023/10/11 08:44:45;;;;;;;39.70;28.02;;;16.70;99.90;;;;;;5079542;28;20077;-88
2023/10/11 08:47:16;;;;;;;37.17;26.38;;;16.70;99.90;;;;;;5096711;28;20040;-88
2023/10/11 08:49:48;;;;;;;23.85;13.18;;;16.80;99.90;;;;;;5078678;28;20375;-88
2023/10/11 08:52:25;;;;;;;37.90;26.40;;;16.80;99.90;;;;;;5071282;28;20596;-89
2023/10/11 08:54:51;;;;;;;21.27;13.25;;;16.80;99.90;;;;;;5101955;28;20396;-89
2023/10/11 08:57:25;;;;;;;40.65;28.23;;;16.80;99.90;;;;;;5079504;28;20100;-88
2023/10/11 08:59:56;;;;;;;40.70;27.52;;;16.80;99.90;;;;;;5096600;28;20559;-88
2023/10/11 09:02:24;;;;;;;26.98;12.88;;;16.90;99.90;;;;;;5087257;28;20039;-88
2023/10/11 09:04:59;;;;;;;27.65;16.55;;;16.80;99.90;;;;;;5095609;28;20043;-89
2023/10/11 09:07:39;;;;;;;41.53;28.83;;;16.80;99.90;;;;;;5095205;28;20069;-88
2023/10/11 09:10:32;;;;;;;43.90;29.63;;;16.80;99.90;;;;;;5078539;28;20039;-88
2023/10/11 09:12:59;;;;;;;;;;;16.80;99.90;;;;;;5098183;28;20089;-88
2023/10/11 09:15:40;;;;;;;37.40;28.50;;;16.70;99.90;;;;;;5079625;28;19922;-88
2023/10/11 09:18:16;;;;;;;28.50;12.93;;;16.80;99.90;;;;;;5105559;27;20031;-89
2023/10/11 09:23:35;;;;;;;38.28;29.45;;;16.70;99.90;;;;;;5105094;27;20118;-88
2023/10/11 09:26:02;;;;;;;27.25;15.65;;;16.70;99.90;;;;;;5087745;27;20039;-88
2023/10/11 09:28:28;;;;;;;38.83;29.30;;;16.70;99.90;;;;;;5088976;27;20046;-88
2023/10/11 09:31:11;;;;;;;46.90;31.65;;;16.70;99.90;;;;;;5078709;28;20047;-88
2023/10/11 09:33:41;;;;;;;43.75;31.63;;;16.80;99.90;;;;;;5102748;27;20042;-88
2023/10/11 09:36:08;;;;;;;43.78;32.33;;;16.80;99.90;;;;;;5103437;27;20042;-88
2023/10/11 09:38:41;;;;;;;44.75;33.33;;;16.80;99.90;;;;;;5103905;27;20042;-87
2023/10/11 09:41:08;;;;;;;25.63;11.82;;;16.80;99.90;;;;;;5084981;27;20154;-87
2023/10/11 09:43:44;;;;;;;34.58;17.55;;;16.80;99.90;;;;;;5078787;28;20392;-88
2023/10/11 09:46:13;;;;;;;42.10;31.40;;;16.80;99.90;;;;;;5078910;28;20058;-87
2023/10/11 09:48:42;;;;;;;34.65;16.63;;;16.80;99.90;;;;;;5095391;28;20104;-87
2023/10/11 09:51:14;;;;;;;40.00;30.15;;;16.80;99.90;;;;;;5095256;28;20414;-88
2023/10/11 09:53:50;;;;;;;40.33;30.20;;;16.80;99.90;;;;;;5099431;28;20062;-87
2023/10/11 09:56:35;;;;;;;32.63;16.67;;;16.80;99.90;;;;;;5079127;28;20067;-88
2023/10/11 09:59:22;;;;;;;40.85;31.25;;;16.80;99.90;;;;;;5097425;28;20533;-87
2023/10/11 10:02:04;;;;;;;41.60;31.02;;;16.90;99.90;;;;;;5094608;28;20069;-88
2023/10/11 10:04:54;;;;;;;42.97;31.02;;;16.90;99.90;;;;;;5095293;28;20088;-88
2023/10/11 10:07:25;;;;;;;42.53;15.93;;;17.00;99.90;;;;;;5086732;28;20079;-88
2023/10/11 10:09:59;;;;;;;25.23;14.45;;;16.90;99.90;;;;;;5078020;28;20469;-88
2023/10/11 10:12:30;;;;;;;30.08;15.82;;;16.90;99.90;;;;;;5077835;28;20383;-88
2023/10/11 10:15:28;;;;;;;42.25;27.77;;;16.90;99.90;;;;;;5114633;27;20394;-88
2023/10/11 10:17:56;;;;;;;25.75;12.65;;;17.00;99.90;;;;;;5104378;28;20047;-88
2023/10/11 10:20:43;;;;;;;35.22;13.45;;;17.00;99.90;;;;;;5077578;28;20035;-87
2023/10/11 10:23:15;;;;;;;35.45;24.38;;;17.10;99.90;;;;;;5086475;28;20050;-88
2023/10/11 10:26:11;;;;;;;27.47;13.87;;;17.10;99.90;;;;;;5105306;27;20040;-88
2023/10/11 10:28:39;;;;;;;37.00;24.77;;;17.20;99.90;;;;;;5070569;27;20058;-88
2023/10/11 10:31:13;;;;;;;34.10;23.10;;;17.20;99.90;;;;;;5083933;27;20031;-88
2023/10/11 10:33:40;;;;;;;31.13;22.42;;;17.30;99.90;;;;;;5085154;27;20122;-88
2023/10/11 10:36:21;;;;;;;34.60;23.67;;;17.30;99.90;;;;;;5101356;27;20110;-88
2023/10/11 10:41:36;;;;;;;23.63;11.38;;;17.40;99.90;;;;;;5100876;27;20039;-87
2023/10/11 10:44:17;;;;;;;34.00;22.60;;;17.50;99.90;;;;;;5084264;28;20120;-87
2023/10/11 10:46:50;;;;;;;34.03;21.42;;;17.60;99.90;;;;;;5102118;27;20037;-88
2023/10/11 10:49:19;;;;;;;26.13;20.55;;;17.70;99.90;;;;;;5086016;27;20035;-86
2023/10/11 10:51:48;;;;;;;31.80;19.27;;;17.70;99.90;;;;;;5090292;28;20035;-88
2023/10/11 10:54:17;;;;;;;27.98;18.73;;;17.90;99.90;;;;;;5086808;27;20502;-88
2023/10/11 10:56:47;;;;;;;26.23;18.40;;;18.00;99.90;;;;;;5088955;27;20055;-88
2023/10/11 10:59:14;;;;;;;23.85;16.73;;;18.10;99.90;;;;;;5101024;28;20111;-88
2023/10/11 11:01:44;;;;;;;25.25;16.67;;;18.20;99.90;;;;;;5112876;28;20046;-88
2023/10/11 11:04:11;;;;;;;25.52;16.38;;;18.20;99.90;;;;;;5103038;28;20065;-88
2023/10/11 11:06:37;;;;;;;23.60;16.20;;;18.30;99.90;;;;;;5112562;28;20032;-88
2023/10/11 11:09:04;;;;;;;21.73;15.90;;;18.30;99.90;;;;;;5093860;28;20231;-89
2023/10/11 11:11:35;;;;;;;25.15;15.20;;;18.30;99.90;;;;;;5077036;28;20101;-88
2023/10/11 11:14:12;;;;;;;28.27;18.05;;;18.30;99.90;;;;;;5095704;28;20036;-88
2023/10/11 11:16:39;;;;;;;20.27;10.68;;;18.30;99.90;;;;;;5081231;28;20122;-88
2023/10/11 11:19:16;;;;;;;18.33;9.95;;;18.30;99.90;;;;;;5098447;28;20138;-88
2023/10/11 11:21:44;;;;;;;25.70;16.40;;;18.40;99.90;;;;;;5106567;27;20040;-87
2023/10/11 11:24:18;;;;;;;24.85;16.17;;;18.50;99.90;;;;;;5092236;27;20031;-88
2023/10/11 11:26:45;;;;;;;16.75;9.00;;;18.60;99.90;;;;;;5081308;28;20114;-88
2023/10/11 11:29:16;;;;;;;23.10;14.02;;;18.70;99.90;;;;;;5095271;28;20040;-88
2023/10/11 11:31:53;;;;;;;21.13;13.68;;;18.90;99.90;;;;;;5099659;28;20071;-88
2023/10/11 11:34:34;;;;;;;20.52;13.23;;;18.90;99.90;;;;;;5095524;28;20499;-88
2023/10/11 11:37:04;;;;;;;26.65;11.93;;;18.90;99.90;;;;;;5102122;28;20057;-88
2023/10/11 11:39:39;;;;;;;18.17;10.50;;;19.00;99.90;;;;;;5078201;28;20407;-88
2023/10/11 11:45:00;;;;;;;16.33;6.25;;;19.20;99.90;;;;;;5068911;28;20083;-88
2023/10/11 11:47:28;;;;;;;16.67;9.73;;;19.10;99.90;;;;;;5044715;28;20036;-88
2023/10/11 11:49:58;;;;;;;18.45;9.93;;;19.00;99.90;;;;;;5052851;28;20103;-88
2023/10/11 11:52:24;;;;;;;16.95;8.60;;;19.00;99.90;;;;;;5061274;28;20138;-88
2023/10/11 11:54:50;;;;;;;15.88;8.95;;;19.00;99.90;;;;;;5053347;28;20535;-88
2023/10/11 11:57:15;;;;;;;19.50;9.40;;;19.00;99.90;;;;;;5035759;28;20408;-88
2023/10/11 11:59:44;;;;;;;16.60;8.43;;;19.00;99.90;;;;;;5045920;28;20040;-88
2023/10/11 12:02:16;;;;;;;15.77;7.40;;;19.00;99.90;;;;;;5071015;28;20509;-88
2023/10/11 12:04:44;;;;;;;;;;;19.00;99.90;;;;;;5034285;28;20051;-88
2023/10/11 12:07:10;;;;;;;14.82;7.00;;;19.10;99.90;;;;;;5081271;28;20410;-88
2023/10/11 12:09:38;;;;;;;14.25;7.20;;;19.10;99.90;;;;;;5040820;28;20052;-88
2023/10/11 12:12:05;;;;;;;13.43;6.97;;;19.20;99.90;;;;;;5063126;28;20055;-88
2023/10/11 12:14:32;;;;;;;9.93;3.50;;;19.30;99.90;;;;;;5039212;28;20052;-88
2023/10/11 12:16:58;;;;;;;14.38;6.82;;;19.20;99.90;;;;;;5055968;28;20488;-88
2023/10/11 12:19:24;;;;;;;15.55;7.45;;;19.20;99.90;;;;;;5054918;28;20044;-88
2023/10/11 12:21:56;;;;;;;15.82;6.65;;;19.30;99.90;;;;;;5083577;28;20055;-88
2023/10/11 12:24:25;;;;;;;14.80;7.00;;;19.30;99.90;;;;;;5097000;28;20050;-88
2023/10/11 12:26:51;;;;;;;12.20;5.20;;;19.40;99.90;;;;;;5097182;28;20040;-88
2023/10/11 12:29:18;;;;;;;15.50;7.18;;;19.30;99.90;;;;;;5096842;28;20035;-88
2023/10/11 12:31:44;;;;;;;12.57;6.32;;;19.40;99.90;;;;;;5101477;28;20097;-89
2023/10/11 12:34:10;;;;;;;18.92;9.60;;;19.40;99.90;;;;;;5097639;28;20039;-88
2023/10/11 12:36:39;;;;;;;18.27;10.45;;;19.50;99.90;;;;;;5097013;28;20036;-88
2023/10/11 12:39:06;;;;;;;19.38;11.32;;;19.50;99.90;;;;;;5079802;28;20074;-88
2023/10/11 12:41:32;;;;;;;19.75;11.85;;;19.60;99.90;;;;;;5083059;28;20049;-87
2023/10/11 12:44:00;;;;;;;17.45;12.10;;;19.50;99.90;;;;;;5112391;28;20032;-88
2023/10/11 12:46:27;;;;;;;20.88;11.93;;;19.60;99.90;;;;;;5097454;28;20051;-88
2023/10/11 12:48:56;;;;;;;22.40;13.15;;;19.70;99.90;;;;;;5104426;28;20036;-87
2023/10/11 12:51:25;;;;;;;13.40;6.40;;;20.10;99.90;;;;;;5082761;28;20083;-88
2023/10/11 12:53:54;;;;;;;18.58;11.38;;;20.40;99.90;;;;;;5079861;28;20051;-88
2023/10/11 12:56:22;;;;;;;18.13;10.10;;;20.40;99.90;;;;;;5114971;28;20089;-88
2023/10/11 12:58:50;;;;;;;19.05;10.43;;;20.30;99.90;;;;;;5096627;28;20478;-88
2023/10/11 13:01:25;;;;;;;17.77;11.15;;;20.40;99.90;;;;;;5088282;28;20035;-88
2023/10/11 13:04:06;;;;;;;18.33;11.07;;;20.40;99.90;;;;;;5104978;28;20039;-88
2023/10/11 13:06:39;;;;;;;17.88;11.18;;;20.30;99.90;;;;;;5096713;28;20494;-88
2023/10/11 13:09:14;;;;;;;19.40;10.65;;;20.20;99.90;;;;;;5086441;28;20498;-88
2023/10/11 13:11:44;;;;;;;19.85;11.43;;;20.30;99.90;;;;;;5079641;28;20562;-88
2023/10/11 13:14:20;;;;;;;17.10;9.98;;;20.40;99.90;;;;;;5079326;28;20498;-88
2023/10/11 13:16:51;;;;;;;17.65;10.38;;;20.20;99.90;;;;;;5079656;28;20067;-88
2023/10/11 13:19:22;;;;;;;15.70;9.73;;;20.10;99.90;;;;;;5106753;28;20145;-88
2023/10/11 13:21:48;;;;;;;17.90;9.63;;;20.00;99.90;;;;;;5079007;28;20035;-88
2023/10/11 13:24:21;;;;;;;17.52;10.35;;;20.00;99.90;;;;;;5114065;28;20118;-88
2023/10/11 13:26:47;;;;;;;15.52;9.70;;;19.90;99.90;;;;;;5099599;28;20059;-88
2023/10/11 13:29:19;;;;;;;15.38;9.07;;;19.80;99.90;;;;;;5095829;28;20078;-88
2023/10/11 13:31:53;;;;;;;16.75;8.85;;;19.80;99.90;;;;;;5078955;28;20035;-88
2023/10/11 13:34:19;;;;;;;16.80;9.60;;;19.80;99.90;;;;;;5080080;28;20088;-88
2023/10/11 13:36:45;;;;;;;16.48;9.85;;;19.70;99.90;;;;;;5081811;28;20031;-88
2023/10/11 13:39:26;;;;;;;16.42;9.18;;;19.70;99.90;;;;;;5078855;28;20059;-88